Bg Felixstowe — V2BR7 — position and weather

sailwx.info

Track history (hours):
 
Tides and Currents Weather Stations Pressure Air Temp Water Temp Dewpoint Dewpoint Depression Visibility Wind Speed Wind Dir Waves Ship Positions

Bg Felixstowe

Last reported at 2017-Mar-27 08:07 UTC. Time now 2017-Mar-30 20:23 UTC.
Position N 25°18' W 080°02'.

Length 139 m; draft 7.1 m.

Type: Ship. MMSI: 304906000.

Date/timePositionNaut miles runAvg speedWind from/ knotsBaromVisibWave heightAir tempDewpointWater temp
2017-Mar-27 08:07N 25°18' W 080°02'712.7
2017-Mar-27 07:33N 25°25' W 079°60'1212.6
2017-Mar-27 06:33N 25°37' W 080°00'1111.5
2017-Mar-27 05:33N 25°46' W 080°09'1 0.8
2017-Mar-27 04:32N 25°46' W 080°10'0 0.0
2017-Mar-27 03:29N 25°46' W 080°10'0 0.0
2017-Mar-27 02:31N 25°46' W 080°10'0 0.0
2017-Mar-27 01:31N 25°46' W 080°10'0 0.0
2017-Mar-27 00:33N 25°46' W 080°10'0 0.0
2017-Mar-26 23:33N 25°46' W 080°10'0 0.0
2017-Mar-26 22:33N 25°46' W 080°10'0 0.0
2017-Mar-26 21:32N 25°46' W 080°10'0 0.0
2017-Mar-26 20:32N 25°46' W 080°10'0 0.0
2017-Mar-26 19:31N 25°46' W 080°10'0 0.0
2017-Mar-26 18:31N 25°46' W 080°10'0 0.0
2017-Mar-26 17:33N 25°46' W 080°10'0 0.0
2017-Mar-26 16:30N 25°46' W 080°10'4 4.5
2017-Mar-26 15:33N 25°46' W 080°05'1514.8
2017-Mar-26 14:34N 25°32' W 079°60'  
2017-Mar-21 06:32N 25°21' W 080°01'10 9.8
2017-Mar-21 05:33N 25°31' W 080°00'1110.9
2017-Mar-21 04:33N 25°41' W 080°03'8 8.0
2017-Mar-21 03:33N 25°46' W 080°10'0 0.0
2017-Mar-21 02:27N 25°46' W 080°10'0 0.0
2017-Mar-21 01:32N 25°46' W 080°10'0 0.0
2017-Mar-21 00:32N 25°46' W 080°10'0 0.0
2017-Mar-20 23:32N 25°46' W 080°10'0 0.0
2017-Mar-20 22:31N 25°46' W 080°10'0 0.0
2017-Mar-20 21:25N 25°46' W 080°10'0 0.0
2017-Mar-20 20:33N 25°46' W 080°10'0 0.0
2017-Mar-20 19:30N 25°46' W 080°10'0 0.0
2017-Mar-20 18:32N 25°46' W 080°10'0 0.0
2017-Mar-20 17:32N 25°46' W 080°10'0 0.0
2017-Mar-20 16:31N 25°46' W 080°10'0 0.0
2017-Mar-20 15:31N 25°46' W 080°10'0 0.0
2017-Mar-20 14:31N 25°46' W 080°10'0 0.0
2017-Mar-20 13:33N 25°46' W 080°10'0 0.0
2017-Mar-20 12:33N 25°46' W 080°10'0 0.0
2017-Mar-20 11:32N 25°46' W 080°10'0 0.0
2017-Mar-20 10:29N 25°46' W 080°10'0 0.0
2017-Mar-20 09:31N 25°46' W 080°10'0 0.0
2017-Mar-20 08:31N 25°46' W 080°10'0 0.0
2017-Mar-20 07:31N 25°46' W 080°10'0 0.0
2017-Mar-20 06:33N 25°46' W 080°10'0 0.0
2017-Mar-20 05:33N 25°46' W 080°10'0 0.0
2017-Mar-20 04:32N 25°46' W 080°10'0 0.0
2017-Mar-20 03:32N 25°46' W 080°10'0 0.0
2017-Mar-20 02:31N 25°46' W 080°10'0 0.0
2017-Mar-20 01:31N 25°46' W 080°10'0 0.0
2017-Mar-20 00:31N 25°46' W 080°10'0 0.0
2017-Mar-19 23:33N 25°46' W 080°10'0 0.0
2017-Mar-19 22:33N 25°46' W 080°10'0 0.0
2017-Mar-19 21:32N 25°46' W 080°10'0 0.0
2017-Mar-19 20:32N 25°46' W 080°10'0 0.0
2017-Mar-19 19:31N 25°46' W 080°10'0 0.0
2017-Mar-19 18:31N 25°46' W 080°10'0 0.0
2017-Mar-19 17:28N 25°46' W 080°10'0 0.0
2017-Mar-19 16:30N 25°46' W 080°10'0 0.1
2017-Mar-19 15:33N 25°46' W 080°10'7 6.9
2017-Mar-19 14:33N 25°44' W 080°03'1817.4
2017-Mar-19 13:33N 25°26' W 080°01'1615.6
2017-Mar-19 12:33N 25°11' W 080°05'1615.8
2017-Mar-19 11:33N 24°57' W 080°13'  
Track history (hours):
 
Tides and Currents Weather Stations Pressure Air Temp Water Temp Dewpoint Dewpoint Depression Visibility Wind Speed Wind Dir Waves Ship Positions

Bg Felixstowe

Last reported at 2017-Mar-27 08:07 UTC. Time now 2017-Mar-30 20:23 UTC.
Position N 25°18' W 080°02'.

Length 139 m; draft 7.1 m.

Type: Ship. MMSI: 304906000.

Date/timePositionNaut miles runAvg speedWind from/ knotsBaromVisibWave heightAir tempDewpointWater temp
2017-Mar-27 08:07N 25°18' W 080°02'712.7
2017-Mar-27 07:33N 25°25' W 079°60'1212.6
2017-Mar-27 06:33N 25°37' W 080°00'1111.5
2017-Mar-27 05:33N 25°46' W 080°09'1 0.8
2017-Mar-27 04:32N 25°46' W 080°10'0 0.0
2017-Mar-27 03:29N 25°46' W 080°10'0 0.0
2017-Mar-27 02:31N 25°46' W 080°10'0 0.0
2017-Mar-27 01:31N 25°46' W 080°10'0 0.0
2017-Mar-27 00:33N 25°46' W 080°10'0 0.0
2017-Mar-26 23:33N 25°46' W 080°10'0 0.0
2017-Mar-26 22:33N 25°46' W 080°10'0 0.0
2017-Mar-26 21:32N 25°46' W 080°10'0 0.0
2017-Mar-26 20:32N 25°46' W 080°10'0 0.0
2017-Mar-26 19:31N 25°46' W 080°10'0 0.0
2017-Mar-26 18:31N 25°46' W 080°10'0 0.0
2017-Mar-26 17:33N 25°46' W 080°10'0 0.0
2017-Mar-26 16:30N 25°46' W 080°10'4 4.5
2017-Mar-26 15:33N 25°46' W 080°05'1514.8
2017-Mar-26 14:34N 25°32' W 079°60'  
2017-Mar-21 06:32N 25°21' W 080°01'10 9.8
2017-Mar-21 05:33N 25°31' W 080°00'1110.9
2017-Mar-21 04:33N 25°41' W 080°03'8 8.0
2017-Mar-21 03:33N 25°46' W 080°10'0 0.0
2017-Mar-21 02:27N 25°46' W 080°10'0 0.0
2017-Mar-21 01:32N 25°46' W 080°10'0 0.0
2017-Mar-21 00:32N 25°46' W 080°10'0 0.0
2017-Mar-20 23:32N 25°46' W 080°10'0 0.0
2017-Mar-20 22:31N 25°46' W 080°10'0 0.0
2017-Mar-20 21:25N 25°46' W 080°10'0 0.0
2017-Mar-20 20:33N 25°46' W 080°10'0 0.0
2017-Mar-20 19:30N 25°46' W 080°10'0 0.0
2017-Mar-20 18:32N 25°46' W 080°10'0 0.0
2017-Mar-20 17:32N 25°46' W 080°10'0 0.0
2017-Mar-20 16:31N 25°46' W 080°10'0 0.0
2017-Mar-20 15:31N 25°46' W 080°10'0 0.0
2017-Mar-20 14:31N 25°46' W 080°10'0 0.0
2017-Mar-20 13:33N 25°46' W 080°10'0 0.0
2017-Mar-20 12:33N 25°46' W 080°10'0 0.0
2017-Mar-20 11:32N 25°46' W 080°10'0 0.0
2017-Mar-20 10:29N 25°46' W 080°10'0 0.0
2017-Mar-20 09:31N 25°46' W 080°10'0 0.0
2017-Mar-20 08:31N 25°46' W 080°10'0 0.0
2017-Mar-20 07:31N 25°46' W 080°10'0 0.0
2017-Mar-20 06:33N 25°46' W 080°10'0 0.0
2017-Mar-20 05:33N 25°46' W 080°10'0 0.0
2017-Mar-20 04:32N 25°46' W 080°10'0 0.0
2017-Mar-20 03:32N 25°46' W 080°10'0 0.0
2017-Mar-20 02:31N 25°46' W 080°10'0 0.0
2017-Mar-20 01:31N 25°46' W 080°10'0 0.0
2017-Mar-20 00:31N 25°46' W 080°10'0 0.0
2017-Mar-19 23:33N 25°46' W 080°10'0 0.0
2017-Mar-19 22:33N 25°46' W 080°10'0 0.0
2017-Mar-19 21:32N 25°46' W 080°10'0 0.0
2017-Mar-19 20:32N 25°46' W 080°10'0 0.0
2017-Mar-19 19:31N 25°46' W 080°10'0 0.0
2017-Mar-19 18:31N 25°46' W 080°10'0 0.0
2017-Mar-19 17:28N 25°46' W 080°10'0 0.0
2017-Mar-19 16:30N 25°46' W 080°10'0 0.1
2017-Mar-19 15:33N 25°46' W 080°10'7 6.9
2017-Mar-19 14:33N 25°44' W 080°03'1817.4
2017-Mar-19 13:33N 25°26' W 080°01'1615.6
2017-Mar-19 12:33N 25°11' W 080°05'1615.8
2017-Mar-19 11:33N 24°57' W 080°13'  

Dump ship's entire track history